Clay, Arkansas
Current Conditions -  °F | °C
As of 3:56 PM on Sunday 23 Nov 2014 (Local Time) from KSRC Reporting Station
Haze Haze  
Wind Chill: 61°   Ceiling: 600
Heat Index: 61°   Visibility: 5mi
Dew Point: 59°   Wind: 3mph
Humidity: 93%   Direction: 200°SSW
Pressure: 29.36"   Gusts: NA
Location:  35.2662°N, 91.8491°W
Report Text: KSRC 232156Z AUTO 20003KT 5SM BR OVC006 16/15 A2936 RMK AO2 SLP949 T01610150 TSNO
Loading
Personal Weather Stations






























Interactive Weather Map New forecast layout! Learn more

10-Day Weather Forecast

Advertisements
Track Severe Weather on mobile